Time;durP1;ratioP1;P1;durP2;ratioP2;P2;SDS_P1;SDS_P2;PMS_P1;PMS_P2;Temp;Humidity;BMP_temperature;BMP_pressure;BME280_temperature;BME280_humidity;BME280_pressure;Samples;Min_cycle;Max_cycle;Signal;HPM_P1;HPM_P2
2023/09/23 00:01:42;;;;;;;0.50;0.50;;;;;;;;;;5073564;28;20296;-82
2023/09/23 00:04:11;;;;;;;0.50;0.50;;;;;;;;;;5073886;28;20296;-82
2023/09/23 00:06:40;;;;;;;0.60;0.60;;;;;;;;;;5073910;28;20198;-82
2023/09/23 00:09:10;;;;;;;0.50;0.50;;;;;;;;;;5073483;28;20186;-82
2023/09/23 00:11:40;;;;;;;0.60;0.60;;;;;;;;;;5073610;28;20273;-82
2023/09/23 00:14:11;;;;;;;0.53;0.53;;;;;;;;;;5074027;28;20206;-82
2023/09/23 00:16:39;;;;;;;0.50;0.50;;;;;;;;;;5073704;28;20198;-82
2023/09/23 00:19:09;;;;;;;0.50;0.50;;;;;;;;;;5073110;28;20226;-83
2023/09/23 00:21:38;;;;;;;0.50;0.50;;;;;;;;;;5073716;28;20251;-82
2023/09/23 00:24:08;;;;;;;0.53;0.53;;;;;;;;;;5073694;28;20210;-83
2023/09/23 00:26:36;;;;;;;0.50;0.50;;;;;;;;;;5073469;28;20194;-82
2023/09/23 00:29:06;;;;;;;0.50;0.50;;;;;;;;;;5072672;28;20255;-82
2023/09/23 00:31:36;;;;;;;0.50;0.50;;;;;;;;;;5072765;28;20225;-82
2023/09/23 00:34:04;;;;;;;0.50;0.50;;;;;;;;;;5073534;28;20222;-82
2023/09/23 00:36:33;;;;;;;0.50;0.50;;;;;;;;;;5073279;28;20224;-82
2023/09/23 00:39:03;;;;;;;0.40;0.40;;;;;;;;;;5072617;28;20228;-82
2023/09/23 00:41:32;;;;;;;0.50;0.50;;;;;;;;;;5072881;28;20208;-82
2023/09/23 00:44:01;;;;;;;0.57;0.57;;;;;;;;;;5073341;28;20331;-82
2023/09/23 00:46:30;;;;;;;0.50;0.50;;;;;;;;;;5073073;28;20297;-82
2023/09/23 00:49:01;;;;;;;0.50;0.50;;;;;;;;;;5072908;28;20205;-83
2023/09/23 00:51:30;;;;;;;0.50;0.50;;;;;;;;;;5073249;28;20202;-82
2023/09/23 00:54:01;;;;;;;0.50;0.50;;;;;;;;;;5072847;28;20234;-82
2023/09/23 00:56:31;;;;;;;0.50;0.50;;;;;;;;;;5072548;28;20482;-82
2023/09/23 00:58:59;;;;;;;0.50;0.50;;;;;;;;;;5072593;28;20218;-82
2023/09/23 01:01:28;;;;;;;0.50;0.50;;;;;;;;;;5073076;28;20204;-82
2023/09/23 01:03:57;;;;;;;0.50;0.50;;;;;;;;;;5073080;28;20297;-82
2023/09/23 01:06:28;;;;;;;0.50;0.50;;;;;;;;;;5072544;28;20198;-82
2023/09/23 01:08:57;;;;;;;0.50;0.50;;;;;;;;;;5072686;28;20202;-84
2023/09/23 01:11:27;;;;;;;0.50;0.50;;;;;;;;;;5072600;28;20202;-84
2023/09/23 01:13:55;;;;;;;0.50;0.50;;;;;;;;;;5072596;28;20193;-84
2023/09/23 01:16:24;;;;;;;0.60;0.60;;;;;;;;;;5072364;28;20279;-84
2023/09/23 01:18:53;;;;;;;0.50;0.50;;;;;;;;;;5072245;28;20222;-84
2023/09/23 01:21:23;;;;;;;0.50;0.50;;;;;;;;;;5072532;28;20201;-84
2023/09/23 01:23:53;;;;;;;0.50;0.50;;;;;;;;;;5072014;28;20209;-84
2023/09/23 01:26:23;;;;;;;0.50;0.50;;;;;;;;;;5072602;28;20221;-84
2023/09/23 01:28:52;;;;;;;0.50;0.50;;;;;;;;;;5072371;28;20197;-84
2023/09/23 01:31:22;;;;;;;0.50;0.50;;;;;;;;;;5073050;28;20214;-84
2023/09/23 01:33:51;;;;;;;0.50;0.50;;;;;;;;;;5071784;28;20228;-84
2023/09/23 01:36:19;;;;;;;0.50;0.50;;;;;;;;;;5072257;28;20217;-85
2023/09/23 01:38:49;;;;;;;0.50;0.50;;;;;;;;;;5072077;28;20292;-82
2023/09/23 01:41:19;;;;;;;0.50;0.50;;;;;;;;;;5072060;28;20205;-82
2023/09/23 01:43:48;;;;;;;0.50;0.50;;;;;;;;;;5071934;28;20236;-81
2023/09/23 01:46:17;;;;;;;0.50;0.50;;;;;;;;;;5072117;28;20225;-82
2023/09/23 01:48:46;;;;;;;0.50;0.50;;;;;;;;;;5072048;28;20206;-81
2023/09/23 01:51:16;;;;;;;0.50;0.50;;;;;;;;;;5072205;28;20206;-82
2023/09/23 01:53:45;;;;;;;0.50;0.50;;;;;;;;;;5071359;28;20233;-82
2023/09/23 01:56:13;;;;;;;0.50;0.50;;;;;;;;;;5071988;28;20202;-81
2023/09/23 01:58:43;;;;;;;0.50;0.50;;;;;;;;;;5072122;28;20245;-82
2023/09/23 02:01:14;;;;;;;0.50;0.50;;;;;;;;;;5071635;28;20208;-81
2023/09/23 02:03:43;;;;;;;0.50;0.50;;;;;;;;;;5071823;28;20202;-81
2023/09/23 02:06:13;;;;;;;0.50;0.50;;;;;;;;;;5072074;28;20208;-82
2023/09/23 02:08:41;;;;;;;0.50;0.50;;;;;;;;;;5071962;28;20208;-82
2023/09/23 02:11:09;;;;;;;0.50;0.50;;;;;;;;;;5071702;28;20205;-82
2023/09/23 02:13:40;;;;;;;0.50;0.50;;;;;;;;;;5071792;28;20198;-82
2023/09/23 02:16:11;;;;;;;0.50;0.50;;;;;;;;;;5071850;28;20297;-82
2023/09/23 02:18:41;;;;;;;0.50;0.50;;;;;;;;;;5071746;28;20271;-85
2023/09/23 02:21:09;;;;;;;0.50;0.50;;;;;;;;;;5071812;28;20201;-84
2023/09/23 02:23:38;;;;;;;0.50;0.50;;;;;;;;;;5072026;28;20205;-84
2023/09/23 02:26:07;;;;;;;0.50;0.50;;;;;;;;;;5072345;28;20272;-85
2023/09/23 02:28:36;;;;;;;0.50;0.50;;;;;;;;;;5071604;28;20202;-85
2023/09/23 02:31:05;;;;;;;0.50;0.50;;;;;;;;;;5071155;28;20471;-85
2023/09/23 02:33:35;;;;;;;0.50;0.50;;;;;;;;;;5072562;28;20250;-81
2023/09/23 02:36:03;;;;;;;0.50;0.50;;;;;;;;;;5071383;28;20196;-82
2023/09/23 02:38:32;;;;;;;0.50;0.50;;;;;;;;;;5071445;28;20208;-81
2023/09/23 02:41:05;;;;;;;0.50;0.50;;;;;;;;;;5071168;28;20213;-82
2023/09/23 02:43:33;;;;;;;0.50;0.50;;;;;;;;;;5072162;28;20202;-82
2023/09/23 02:46:02;;;;;;;0.50;0.50;;;;;;;;;;5071512;28;20194;-81
2023/09/23 02:48:31;;;;;;;0.50;0.50;;;;;;;;;;5071263;28;20252;-82
2023/09/23 02:51:03;;;;;;;0.50;0.50;;;;;;;;;;5071584;28;20229;-81
2023/09/23 02:53:33;;;;;;;0.50;0.50;;;;;;;;;;5073154;28;20325;-84
2023/09/23 02:56:06;;;;;;;0.50;0.50;;;;;;;;;;5076092;28;20293;-84
2023/09/23 02:58:34;;;;;;;0.50;0.50;;;;;;;;;;5075404;28;20208;-85
2023/09/23 03:01:05;;;;;;;0.50;0.50;;;;;;;;;;5075804;28;20202;-84
2023/09/23 03:03:37;;;;;;;0.47;0.47;;;;;;;;;;5076057;28;20194;-84
2023/09/23 03:06:10;;;;;;;0.50;0.50;;;;;;;;;;5075143;28;20276;-84
2023/09/23 03:08:39;;;;;;;0.50;0.50;;;;;;;;;;5075348;28;20208;-84
2023/09/23 03:11:11;;;;;;;0.50;0.50;;;;;;;;;;5075293;28;20186;-84
2023/09/23 03:13:40;;;;;;;0.40;0.40;;;;;;;;;;5075879;28;20243;-84
2023/09/23 03:16:13;;;;;;;0.40;0.40;;;;;;;;;;5075169;28;20212;-84
2023/09/23 03:18:54;;;;;;;0.40;0.40;;;;;;;;;;5075147;28;20198;-84
2023/09/23 03:21:25;;;;;;;0.40;0.40;;;;;;;;;;5075629;28;20205;-84
2023/09/23 03:23:53;;;;;;;0.50;0.50;;;;;;;;;;5075307;28;20214;-85
2023/09/23 03:26:22;;;;;;;0.50;0.50;;;;;;;;;;5074998;28;20206;-86
2023/09/23 03:28:50;;;;;;;0.50;0.50;;;;;;;;;;5075353;28;20252;-84
2023/09/23 03:31:19;;;;;;;0.40;0.40;;;;;;;;;;5075535;28;20198;-84
2023/09/23 03:33:48;;;;;;;0.50;0.50;;;;;;;;;;5075219;28;20199;-84
2023/09/23 03:36:16;;;;;;;0.50;0.50;;;;;;;;;;5074692;28;20271;-84
2023/09/23 03:38:47;;;;;;;0.50;0.50;;;;;;;;;;5075752;28;20233;-84
2023/09/23 03:41:16;;;;;;;0.50;0.50;;;;;;;;;;5075688;28;20315;-84
2023/09/23 03:43:45;;;;;;;0.50;0.50;;;;;;;;;;5075561;28;20225;-84
2023/09/23 03:46:16;;;;;;;0.50;0.50;;;;;;;;;;5075541;28;20205;-84
2023/09/23 03:48:44;;;;;;;0.50;0.50;;;;;;;;;;5075650;28;20202;-84
2023/09/23 03:51:14;;;;;;;0.50;0.50;;;;;;;;;;5075625;28;20193;-84
2023/09/23 03:53:44;;;;;;;0.50;0.50;;;;;;;;;;5074941;28;20237;-84
2023/09/23 03:56:14;;;;;;;0.50;0.50;;;;;;;;;;5075681;28;20204;-84
2023/09/23 03:58:43;;;;;;;0.50;0.50;;;;;;;;;;5075208;28;20197;-84
2023/09/23 04:01:14;;;;;;;0.50;0.50;;;;;;;;;;5075262;28;20285;-84
2023/09/23 04:03:43;;;;;;;0.50;0.50;;;;;;;;;;5074206;28;20197;-81
2023/09/23 04:06:11;;;;;;;0.40;0.40;;;;;;;;;;5075034;28;20226;-80
2023/09/23 04:08:40;;;;;;;0.50;0.50;;;;;;;;;;5074145;28;20202;-81
2023/09/23 04:11:15;;;;;;;1.07;1.07;;;;;;;;;;5074565;28;20240;-81
2023/09/23 04:13:46;;;;;;;0.50;0.50;;;;;;;;;;5073810;28;20220;-81
2023/09/23 04:16:15;;;;;;;0.50;0.50;;;;;;;;;;5074437;28;20300;-80
2023/09/23 04:18:44;;;;;;;0.50;0.50;;;;;;;;;;5073965;28;20201;-80
2023/09/23 04:21:13;;;;;;;0.50;0.50;;;;;;;;;;5073812;28;20225;-81
2023/09/23 04:23:42;;;;;;;0.50;0.50;;;;;;;;;;5073660;28;20213;-81
2023/09/23 04:26:12;;;;;;;0.50;0.50;;;;;;;;;;5074034;28;20251;-81
2023/09/23 04:28:41;;;;;;;0.50;0.50;;;;;;;;;;5073794;28;20194;-81
2023/09/23 04:31:12;;;;;;;0.50;0.50;;;;;;;;;;5073594;28;20194;-81
2023/09/23 04:33:41;;;;;;;0.40;0.40;;;;;;;;;;5073685;28;20205;-81
2023/09/23 04:36:12;;;;;;;0.50;0.50;;;;;;;;;;5073364;28;20197;-81
2023/09/23 04:38:43;;;;;;;0.40;0.40;;;;;;;;;;5073393;28;20208;-81
2023/09/23 04:41:12;;;;;;;0.50;0.50;;;;;;;;;;5073431;28;20214;-84
2023/09/23 04:43:42;;;;;;;0.40;0.40;;;;;;;;;;5075025;28;20247;-84
2023/09/23 04:46:14;;;;;;;0.50;0.50;;;;;;;;;;5075128;28;20202;-84
2023/09/23 04:48:43;;;;;;;0.50;0.50;;;;;;;;;;5074570;28;20217;-85
2023/09/23 04:51:12;;;;;;;0.50;0.50;;;;;;;;;;5074300;28;20194;-84
2023/09/23 04:53:41;;;;;;;0.50;0.50;;;;;;;;;;5074209;28;20233;-84
2023/09/23 04:56:10;;;;;;;0.50;0.50;;;;;;;;;;5074253;28;20244;-84
2023/09/23 04:58:39;;;;;;;0.50;0.50;;;;;;;;;;5073978;28;20229;-84
2023/09/23 05:01:09;;;;;;;0.50;0.50;;;;;;;;;;5073911;28;20224;-84
2023/09/23 05:03:38;;;;;;;0.50;0.50;;;;;;;;;;5074059;28;20197;-84
2023/09/23 05:06:08;;;;;;;0.50;0.50;;;;;;;;;;5074167;28;20198;-84
2023/09/23 05:08:36;;;;;;;0.50;0.50;;;;;;;;;;5073227;28;20209;-84
2023/09/23 05:11:06;;;;;;;0.50;0.50;;;;;;;;;;5073652;28;20201;-84
2023/09/23 05:13:37;;;;;;;0.50;0.50;;;;;;;;;;5073805;28;20228;-84
2023/09/23 05:16:06;;;;;;;0.50;0.50;;;;;;;;;;5073164;28;20203;-84
2023/09/23 05:18:34;;;;;;;0.50;0.50;;;;;;;;;;5073393;28;20198;-84
2023/09/23 05:21:05;;;;;;;0.50;0.50;;;;;;;;;;5073761;28;20259;-83
2023/09/23 05:23:33;;;;;;;0.50;0.50;;;;;;;;;;5073852;28;20198;-84
2023/09/23 05:26:04;;;;;;;0.50;0.50;;;;;;;;;;5073643;28;20207;-84
2023/09/23 05:28:33;;;;;;;0.50;0.50;;;;;;;;;;5073167;28;20202;-85
2023/09/23 05:31:03;;;;;;;0.50;0.50;;;;;;;;;;5073793;28;20197;-84
2023/09/23 05:33:32;;;;;;;0.50;0.50;;;;;;;;;;5073852;28;20269;-84
2023/09/23 05:36:00;;;;;;;0.50;0.50;;;;;;;;;;5073027;28;20221;-83
2023/09/23 05:38:31;;;;;;;0.50;0.50;;;;;;;;;;5073300;28;20210;-84
2023/09/23 05:41:00;;;;;;;0.50;0.50;;;;;;;;;;5073559;28;20217;-84
2023/09/23 05:43:30;;;;;;;0.50;0.50;;;;;;;;;;5073315;28;20217;-83
2023/09/23 05:45:58;;;;;;;0.50;0.50;;;;;;;;;;5073784;28;20209;-83
2023/09/23 05:48:26;;;;;;;0.50;0.50;;;;;;;;;;5073170;28;20198;-84
2023/09/23 05:51:03;;;;;;;0.50;0.50;;;;;;;;;;5073413;28;20198;-84
2023/09/23 05:53:34;;;;;;;0.50;0.50;;;;;;;;;;5073199;28;20237;-84
2023/09/23 05:56:02;;;;;;;0.50;0.50;;;;;;;;;;5073200;28;20225;-84
2023/09/23 05:58:31;;;;;;;0.40;0.40;;;;;;;;;;5073231;28;20297;-86
2023/09/23 06:01:00;;;;;;;0.50;0.50;;;;;;;;;;5072834;28;20231;-84
2023/09/23 06:03:28;;;;;;;0.50;0.50;;;;;;;;;;5073592;28;20207;-83
2023/09/23 06:05:57;;;;;;;0.50;0.50;;;;;;;;;;5073108;28;20209;-84
2023/09/23 06:08:26;;;;;;;0.60;0.60;;;;;;;;;;5073554;28;20205;-83
2023/09/23 06:11:04;;;;;;;0.50;0.50;;;;;;;;;;5073452;28;20292;-85
2023/09/23 06:13:34;;;;;;;0.50;0.50;;;;;;;;;;5073042;28;20292;-84
2023/09/23 06:16:03;;;;;;;0.70;0.70;;;;;;;;;;5073175;28;20289;-84
2023/09/23 06:18:32;;;;;;;0.50;0.50;;;;;;;;;;5073535;28;20209;-83
2023/09/23 06:21:02;;;;;;;0.50;0.50;;;;;;;;;;5073143;28;20214;-84
2023/09/23 06:23:30;;;;;;;0.40;0.40;;;;;;;;;;5073004;28;20216;-81
2023/09/23 06:26:02;;;;;;;0.43;0.43;;;;;;;;;;5072262;28;20197;-80
2023/09/23 06:28:31;;;;;;;0.50;0.50;;;;;;;;;;5074879;28;20296;-81
2023/09/23 06:30:59;;;;;;;0.50;0.50;;;;;;;;;;5075904;28;20259;-80
2023/09/23 06:33:28;;;;;;;0.50;0.50;;;;;;;;;;5075999;28;20198;-80
2023/09/23 06:35:56;;;;;;;0.50;0.50;;;;;;;;;;5075753;28;20202;-80
2023/09/23 06:38:25;;;;;;;0.50;0.50;;;;;;;;;;5076212;28;20252;-80
2023/09/23 06:40:56;;;;;;;0.50;0.50;;;;;;;;;;5075465;28;20207;-80
2023/09/23 06:43:26;;;;;;;0.43;0.43;;;;;;;;;;5075757;28;20209;-80
2023/09/23 06:45:55;;;;;;;0.50;0.50;;;;;;;;;;5075825;28;20201;-80
2023/09/23 06:48:24;;;;;;;0.50;0.50;;;;;;;;;;5075702;28;20221;-80
2023/09/23 06:50:59;;;;;;;0.50;0.50;;;;;;;;;;5075452;28;20210;-80
2023/09/23 06:53:28;;;;;;;0.40;0.40;;;;;;;;;;5075628;28;20249;-80
2023/09/23 06:55:57;;;;;;;0.40;0.40;;;;;;;;;;5075781;28;20203;-80
2023/09/23 06:58:26;;;;;;;0.40;0.40;;;;;;;;;;5075495;28;20202;-80
2023/09/23 07:00:55;;;;;;;0.40;0.40;;;;;;;;;;5075490;28;20198;-80
2023/09/23 07:03:24;;;;;;;0.50;0.50;;;;;;;;;;5075548;28;20321;-81
2023/09/23 07:05:52;;;;;;;0.50;0.50;;;;;;;;;;5075438;28;20197;-80
2023/09/23 07:08:21;;;;;;;0.40;0.40;;;;;;;;;;5075185;28;20207;-80
2023/09/23 07:10:50;;;;;;;0.50;0.50;;;;;;;;;;5074972;28;20196;-80
2023/09/23 07:13:19;;;;;;;0.40;0.40;;;;;;;;;;5076092;28;20215;-81
2023/09/23 07:15:48;;;;;;;0.40;0.40;;;;;;;;;;5075596;28;20247;-84
2023/09/23 07:18:17;;;;;;;0.40;0.40;;;;;;;;;;5075727;28;20209;-84
2023/09/23 07:20:46;;;;;;;0.40;0.40;;;;;;;;;;5076050;28;20297;-84
2023/09/23 07:23:14;;;;;;;0.50;0.50;;;;;;;;;;5076493;28;20227;-83
2023/09/23 07:25:43;;;;;;;0.40;0.40;;;;;;;;;;5076362;28;20200;-84
2023/09/23 07:28:11;;;;;;;0.40;0.40;;;;;;;;;;5075457;28;20205;-84
2023/09/23 07:30:40;;;;;;;0.50;0.50;;;;;;;;;;5075930;28;20218;-84
2023/09/23 07:33:09;;;;;;;0.50;0.50;;;;;;;;;;5076378;28;20203;-84
2023/09/23 07:35:38;;;;;;;0.40;0.40;;;;;;;;;;5075683;28;20204;-84
2023/09/23 07:38:06;;;;;;;0.40;0.40;;;;;;;;;;5075184;28;20221;-83
2023/09/23 07:40:39;;;;;;;0.40;0.40;;;;;;;;;;5075373;28;20264;-83
2023/09/23 07:43:10;;;;;;;0.40;0.40;;;;;;;;;;5075146;28;20216;-84
2023/09/23 07:45:38;;;;;;;0.47;0.47;;;;;;;;;;5075258;28;20204;-83
2023/09/23 07:48:07;;;;;;;0.40;0.40;;;;;;;;;;5075553;28;20211;-83
2023/09/23 07:50:37;;;;;;;0.40;0.40;;;;;;;;;;5075938;28;20211;-84
2023/09/23 07:53:06;;;;;;;0.40;0.40;;;;;;;;;;5075292;28;20271;-83
2023/09/23 07:55:35;;;;;;;0.40;0.40;;;;;;;;;;5075323;28;20199;-84
2023/09/23 07:58:03;;;;;;;0.40;0.40;;;;;;;;;;5075162;28;20208;-84
2023/09/23 08:00:31;;;;;;;0.40;0.40;;;;;;;;;;5075432;28;20231;-84
2023/09/23 08:03:00;;;;;;;0.40;0.40;;;;;;;;;;5075210;28;20217;-84
2023/09/23 08:05:29;;;;;;;0.40;0.40;;;;;;;;;;5075205;28;20239;-83
2023/09/23 08:07:59;;;;;;;0.40;0.40;;;;;;;;;;5075449;28;20211;-84
2023/09/23 08:10:28;;;;;;;0.40;0.40;;;;;;;;;;5075438;28;20213;-84
2023/09/23 08:12:56;;;;;;;0.80;0.80;;;;;;;;;;5075366;28;20204;-84
2023/09/23 08:15:25;;;;;;;0.40;0.40;;;;;;;;;;5075247;28;20208;-84
2023/09/23 08:17:53;;;;;;;0.40;0.40;;;;;;;;;;5075248;28;20198;-84
2023/09/23 08:20:23;;;;;;;0.40;0.40;;;;;;;;;;5075238;28;20203;-84
2023/09/23 08:22:53;;;;;;;0.40;0.40;;;;;;;;;;5074686;28;20220;-84
2023/09/23 08:25:27;;;;;;;0.40;0.40;;;;;;;;;;5074745;28;20201;-86
2023/09/23 08:27:56;;;;;;;0.40;0.40;;;;;;;;;;5073819;28;20204;-80
2023/09/23 08:30:25;;;;;;;0.40;0.40;;;;;;;;;;5073690;28;20201;-80
2023/09/23 08:32:54;;;;;;;0.40;0.40;;;;;;;;;;5073405;28;20226;-80
2023/09/23 08:35:23;;;;;;;0.33;0.33;;;;;;;;;;5073857;28;20185;-80
2023/09/23 08:37:52;;;;;;;0.40;0.40;;;;;;;;;;5073499;28;20232;-80
2023/09/23 08:40:20;;;;;;;0.30;0.30;;;;;;;;;;5073714;28;20463;-80
2023/09/23 08:42:52;;;;;;;0.40;0.40;;;;;;;;;;5073115;28;20228;-81
2023/09/23 08:45:23;;;;;;;0.40;0.40;;;;;;;;;;5073184;28;20198;-81
2023/09/23 08:47:52;;;;;;;0.30;0.30;;;;;;;;;;5073409;28;20202;-80
2023/09/23 08:50:21;;;;;;;0.30;0.30;;;;;;;;;;5072808;28;20241;-81
2023/09/23 08:52:50;;;;;;;0.40;0.40;;;;;;;;;;5072421;28;20197;-81
2023/09/23 08:55:21;;;;;;;0.40;0.40;;;;;;;;;;5073446;28;20238;-80
2023/09/23 08:57:51;;;;;;;0.30;0.30;;;;;;;;;;5072899;28;20189;-80
2023/09/23 09:00:20;;;;;;;0.40;0.40;;;;;;;;;;5072866;28;20205;-80
2023/09/23 09:02:48;;;;;;;0.30;0.30;;;;;;;;;;5072724;28;20225;-81
2023/09/23 09:05:17;;;;;;;0.30;0.30;;;;;;;;;;5073481;28;20277;-80
2023/09/23 09:07:46;;;;;;;0.40;0.40;;;;;;;;;;5073112;28;20197;-81
2023/09/23 09:10:15;;;;;;;0.37;0.37;;;;;;;;;;5072466;28;20209;-81
2023/09/23 09:12:43;;;;;;;0.30;0.30;;;;;;;;;;5072723;28;20201;-80
2023/09/23 09:15:13;;;;;;;0.40;0.40;;;;;;;;;;5072815;28;20210;-81
2023/09/23 09:17:44;;;;;;;0.30;0.30;;;;;;;;;;5072765;28;20198;-81
2023/09/23 09:20:13;;;;;;;0.40;0.40;;;;;;;;;;5072623;28;20202;-81
2023/09/23 09:22:44;;;;;;;0.30;0.30;;;;;;;;;;5072440;28;20250;-80
2023/09/23 09:25:14;;;;;;;0.33;0.33;;;;;;;;;;5073323;28;20207;-80
2023/09/23 09:27:44;;;;;;;0.40;0.40;;;;;;;;;;5072361;28;20198;-81
2023/09/23 09:30:14;;;;;;;0.30;0.30;;;;;;;;;;5072149;28;20202;-81
2023/09/23 09:32:43;;;;;;;0.40;0.40;;;;;;;;;;5072549;28;20319;-80
2023/09/23 09:35:13;;;;;;;0.40;0.40;;;;;;;;;;5072662;28;20266;-80
2023/09/23 09:37:44;;;;;;;0.30;0.30;;;;;;;;;;5072216;28;20222;-80
2023/09/23 09:40:16;;;;;;;0.30;0.30;;;;;;;;;;5072502;28;20206;-80
2023/09/23 09:42:48;;;;;;;0.40;0.40;;;;;;;;;;5072127;28;20209;-81
2023/09/23 09:45:20;;;;;;;0.40;0.40;;;;;;;;;;5072802;28;20194;-81
2023/09/23 09:47:50;;;;;;;0.40;0.40;;;;;;;;;;5071197;28;20201;-82
2023/09/23 09:50:19;;;;;;;0.30;0.30;;;;;;;;;;5072232;28;20213;-83
2023/09/23 09:52:47;;;;;;;0.40;0.40;;;;;;;;;;5071953;28;20212;-82
2023/09/23 09:55:18;;;;;;;0.40;0.40;;;;;;;;;;5071517;28;20249;-83
2023/09/23 09:57:47;;;;;;;0.40;0.40;;;;;;;;;;5071671;28;20201;-82
2023/09/23 10:00:27;;;;;;;0.40;0.40;;;;;;;;;;5072246;28;20209;-82
2023/09/23 10:03:05;;;;;;;0.40;0.40;;;;;;;;;;5072239;28;20228;-82
2023/09/23 10:05:35;;;;;;;0.40;0.40;;;;;;;;;;5071861;28;20208;-82
2023/09/23 10:08:12;;;;;;;0.40;0.40;;;;;;;;;;5071923;28;20208;-84
2023/09/23 10:10:47;;;;;;;0.40;0.40;;;;;;;;;;5072310;28;20203;-84
2023/09/23 10:13:16;;;;;;;0.40;0.40;;;;;;;;;;5072281;28;20208;-84
2023/09/23 10:15:45;;;;;;;0.40;0.40;;;;;;;;;;5071553;28;20200;-84
2023/09/23 10:18:16;;;;;;;0.40;0.40;;;;;;;;;;5072013;28;20216;-85
2023/09/23 10:20:49;;;;;;;0.30;0.30;;;;;;;;;;5072011;28;20244;-84
2023/09/23 10:23:18;;;;;;;0.40;0.40;;;;;;;;;;5071832;28;20232;-84
2023/09/23 10:25:47;;;;;;;0.40;0.40;;;;;;;;;;5072149;28;20205;-85
2023/09/23 10:28:23;;;;;;;0.40;0.40;;;;;;;;;;5072028;28;20209;-84
2023/09/23 10:30:58;;;;;;;0.40;0.40;;;;;;;;;;5072271;28;20200;-85
2023/09/23 10:33:29;;;;;;;0.40;0.40;;;;;;;;;;5071761;28;20238;-85
2023/09/23 10:35:58;;;;;;;0.40;0.40;;;;;;;;;;5072076;28;20264;-85
2023/09/23 10:38:30;;;;;;;0.30;0.30;;;;;;;;;;5072161;28;20206;-85
2023/09/23 10:40:59;;;;;;;0.40;0.40;;;;;;;;;;5072230;28;20200;-85
2023/09/23 10:43:28;;;;;;;0.30;0.30;;;;;;;;;;5072063;28;20248;-84
2023/09/23 10:45:57;;;;;;;0.40;0.40;;;;;;;;;;5071587;28;20286;-81
2023/09/23 10:48:26;;;;;;;0.40;0.40;;;;;;;;;;5070877;28;20196;-82
2023/09/23 10:50:56;;;;;;;0.40;0.40;;;;;;;;;;5070985;28;20197;-81
2023/09/23 10:53:27;;;;;;;0.30;0.30;;;;;;;;;;5071168;28;20230;-81
2023/09/23 10:55:57;;;;;;;0.30;0.30;;;;;;;;;;5071431;28;20230;-82
2023/09/23 10:58:26;;;;;;;0.30;0.30;;;;;;;;;;5071168;28;20205;-81
2023/09/23 11:00:56;;;;;;;0.30;0.30;;;;;;;;;;5071177;28;20201;-81
2023/09/23 11:03:24;;;;;;;3.40;1.33;;;;;;;;;;5071206;28;20232;-81
2023/09/23 11:05:55;;;;;;;2.07;1.57;;;;;;;;;;5071004;28;20219;-82
2023/09/23 11:08:27;;;;;;;1.37;1.27;;;;;;;;;;5071648;28;20206;-81
2023/09/23 11:10:58;;;;;;;0.50;0.50;;;;;;;;;;5070847;28;20201;-81
2023/09/23 11:13:27;;;;;;;2.00;1.80;;;;;;;;;;5070873;28;20203;-81
2023/09/23 11:15:57;;;;;;;0.40;0.40;;;;;;;;;;5076125;28;20205;-84
2023/09/23 11:18:28;;;;;;;1.40;0.60;;;;;;;;;;5074921;28;20186;-84
2023/09/23 11:20:57;;;;;;;5.00;0.70;;;;;;;;;;5075561;28;20198;-84
2023/09/23 11:23:29;;;;;;;2.97;0.50;;;;;;;;;;5075964;28;20213;-84
2023/09/23 11:25:58;;;;;;;0.40;0.40;;;;;;;;;;5075991;28;20273;-84
2023/09/23 11:28:27;;;;;;;0.80;0.80;;;;;;;;;;5075120;28;20208;-84
2023/09/23 11:30:56;;;;;;;0.50;0.50;;;;;;;;;;5075594;28;20296;-84
2023/09/23 11:33:25;;;;;;;2.10;0.90;;;;;;;;;;5075266;28;20201;-84
2023/09/23 11:35:57;;;;;;;0.47;0.47;;;;;;;;;;5075219;28;20213;-84
2023/09/23 11:38:25;;;;;;;1.43;1.33;;;;;;;;;;5074629;28;20231;-84
2023/09/23 11:40:56;;;;;;;0.60;0.60;;;;;;;;;;5074587;28;20262;-84
2023/09/23 11:43:26;;;;;;;0.90;0.60;;;;;;;;;;5075142;28;20223;-84
2023/09/23 11:45:54;;;;;;;0.53;0.53;;;;;;;;;;5074936;28;20252;-84
2023/09/23 11:48:23;;;;;;;0.50;0.50;;;;;;;;;;5074094;28;20198;-84
2023/09/23 11:50:51;;;;;;;0.40;0.40;;;;;;;;;;5075205;28;20261;-84
2023/09/23 11:53:20;;;;;;;0.40;0.40;;;;;;;;;;5075029;28;20320;-84
2023/09/23 11:55:49;;;;;;;0.50;0.50;;;;;;;;;;5075018;28;20204;-84
2023/09/23 11:58:19;;;;;;;0.40;0.40;;;;;;;;;;5074339;28;20209;-84
2023/09/23 12:00:48;;;;;;;0.70;0.53;;;;;;;;;;5075069;28;20202;-84
2023/09/23 12:03:18;;;;;;;0.83;0.83;;;;;;;;;;5074804;28;20204;-84
2023/09/23 12:05:48;;;;;;;1.13;0.90;;;;;;;;;;5074460;28;20224;-85
2023/09/23 12:08:19;;;;;;;0.50;0.50;;;;;;;;;;5074502;28;20211;-85
2023/09/23 12:10:48;;;;;;;3.40;1.37;;;;;;;;;;5074501;28;20306;-84
2023/09/23 12:13:18;;;;;;;0.40;0.40;;;;;;;;;;5074367;28;20255;-84
2023/09/23 12:15:48;;;;;;;0.50;0.50;;;;;;;;;;5074600;28;20288;-84
2023/09/23 12:18:16;;;;;;;1.80;1.70;;;;;;;;;;5074404;28;20317;-84
2023/09/23 12:20:45;;;;;;;1.90;1.00;;;;;;;;;;5074881;28;20293;-84
2023/09/23 12:23:15;;;;;;;0.70;0.60;;;;;;;;;;5074542;28;20203;-84
2023/09/23 12:25:44;;;;;;;0.73;0.67;;;;;;;;;;5074182;28;20332;-84
2023/09/23 12:28:13;;;;;;;0.57;0.57;;;;;;;;;;5074420;28;20194;-84
2023/09/23 12:30:41;;;;;;;3.20;0.97;;;;;;;;;;5074871;28;20190;-84
2023/09/23 12:33:11;;;;;;;0.60;0.60;;;;;;;;;;5074214;28;20205;-84
2023/09/23 12:35:41;;;;;;;1.53;0.70;;;;;;;;;;5074249;28;20201;-84
2023/09/23 12:38:10;;;;;;;1.67;0.70;;;;;;;;;;5074478;28;20221;-84
2023/09/23 12:40:39;;;;;;;1.40;0.83;;;;;;;;;;5074503;28;20213;-84
2023/09/23 12:43:07;;;;;;;0.50;0.50;;;;;;;;;;5074541;28;20202;-84
2023/09/23 12:45:37;;;;;;;0.40;0.40;;;;;;;;;;5073865;28;20210;-84
2023/09/23 12:48:06;;;;;;;0.50;0.50;;;;;;;;;;5074369;28;20228;-84
2023/09/23 12:50:37;;;;;;;0.40;0.40;;;;;;;;;;5074540;28;20293;-84
2023/09/23 12:53:05;;;;;;;0.60;0.43;;;;;;;;;;5073683;28;20200;-84
2023/09/23 12:55:34;;;;;;;0.50;0.50;;;;;;;;;;5074127;28;20229;-85
2023/09/23 12:58:03;;;;;;;0.70;0.70;;;;;;;;;;5073861;28;20198;-86
2023/09/23 13:00:31;;;;;;;0.40;0.40;;;;;;;;;;5073915;28;20209;-84
2023/09/23 13:03:00;;;;;;;1.17;1.00;;;;;;;;;;5074203;28;20205;-84
2023/09/23 13:05:28;;;;;;;2.60;0.50;;;;;;;;;;5074264;28;20223;-84
2023/09/23 13:07:58;;;;;;;0.43;0.43;;;;;;;;;;5074266;28;20194;-84
2023/09/23 13:10:27;;;;;;;3.40;0.63;;;;;;;;;;5074275;28;20202;-84
2023/09/23 13:12:55;;;;;;;5.27;1.37;;;;;;;;;;5074092;28;20198;-83
2023/09/23 13:15:23;;;;;;;0.40;0.40;;;;;;;;;;5073627;28;20212;-83
2023/09/23 13:17:52;;;;;;;2.07;0.50;;;;;;;;;;5074441;28;20208;-84
2023/09/23 13:20:20;;;;;;;0.50;0.50;;;;;;;;;;5073217;28;20190;-84
2023/09/23 13:22:49;;;;;;;0.50;0.50;;;;;;;;;;5073334;28;20209;-84
2023/09/23 13:25:19;;;;;;;0.40;0.40;;;;;;;;;;5073008;28;20214;-84
2023/09/23 13:27:47;;;;;;;0.50;0.50;;;;;;;;;;5073359;28;20205;-84
2023/09/23 13:30:16;;;;;;;0.40;0.40;;;;;;;;;;5072857;28;20194;-84
2023/09/23 13:32:44;;;;;;;0.73;0.70;;;;;;;;;;5073256;28;20207;-84
2023/09/23 13:35:13;;;;;;;2.03;0.90;;;;;;;;;;5073285;28;20231;-84
2023/09/23 13:37:43;;;;;;;2.53;0.60;;;;;;;;;;5072653;28;20221;-84
2023/09/23 13:40:11;;;;;;;0.80;0.70;;;;;;;;;;5072578;28;20210;-85
2023/09/23 13:42:41;;;;;;;2.43;0.53;;;;;;;;;;5072639;28;20199;-85
2023/09/23 13:45:10;;;;;;;4.60;0.70;;;;;;;;;;5072877;28;20435;-84
2023/09/23 13:47:39;;;;;;;0.93;0.73;;;;;;;;;;5073182;28;20207;-84
2023/09/23 13:50:08;;;;;;;0.50;0.40;;;;;;;;;;5072270;28;20199;-83
2023/09/23 13:52:37;;;;;;;0.70;0.70;;;;;;;;;;5072929;28;20220;-84
2023/09/23 13:55:07;;;;;;;0.67;0.63;;;;;;;;;;5072798;28;20232;-84
2023/09/23 13:57:35;;;;;;;0.53;0.53;;;;;;;;;;5072414;28;20236;-84
2023/09/23 14:00:07;;;;;;;0.77;0.77;;;;;;;;;;5072742;28;20225;-84
2023/09/23 14:02:35;;;;;;;1.60;0.50;;;;;;;;;;5072935;28;20203;-84
2023/09/23 14:05:04;;;;;;;1.23;0.57;;;;;;;;;;5072502;28;20210;-84
2023/09/23 14:07:34;;;;;;;0.60;0.60;;;;;;;;;;5072143;28;20198;-84
2023/09/23 14:10:03;;;;;;;1.07;0.73;;;;;;;;;;5072765;28;20206;-84
2023/09/23 14:12:49;;;;;;;0.30;0.30;;;;;;;;;;5072483;28;20190;-84
2023/09/23 14:15:19;;;;;;;0.40;0.40;;;;;;;;;;5072473;28;20206;-84
2023/09/23 14:17:47;;;;;;;3.60;0.70;;;;;;;;;;5072329;28;20198;-84
2023/09/23 14:20:16;;;;;;;1.23;0.90;;;;;;;;;;5072379;28;20203;-84
2023/09/23 14:22:48;;;;;;;0.93;0.93;;;;;;;;;;5072737;28;20201;-83
2023/09/23 14:25:18;;;;;;;0.40;0.40;;;;;;;;;;5073170;28;20217;-84
2023/09/23 14:27:46;;;;;;;1.73;0.80;;;;;;;;;;5073274;28;20197;-84
2023/09/23 14:30:15;;;;;;;0.40;0.40;;;;;;;;;;5072158;28;20213;-84
2023/09/23 14:32:45;;;;;;;0.50;0.50;;;;;;;;;;5072022;28;20223;-84
2023/09/23 14:35:13;;;;;;;1.93;0.83;;;;;;;;;;5072062;28;20201;-85
2023/09/23 14:37:44;;;;;;;0.40;0.40;;;;;;;;;;5072005;28;20263;-84
2023/09/23 14:40:13;;;;;;;2.57;1.40;;;;;;;;;;5071859;28;20293;-83
2023/09/23 14:42:41;;;;;;;1.93;0.73;;;;;;;;;;5072515;28;20209;-83
2023/09/23 14:45:10;;;;;;;0.40;0.40;;;;;;;;;;5071943;28;20446;-83
2023/09/23 14:47:42;;;;;;;3.20;0.60;;;;;;;;;;5072726;28;20269;-83
2023/09/23 14:50:12;;;;;;;0.50;0.50;;;;;;;;;;5074312;28;20204;-83
2023/09/23 14:52:41;;;;;;;0.50;0.50;;;;;;;;;;5076624;28;20296;-83
2023/09/23 14:55:10;;;;;;;0.53;0.50;;;;;;;;;;5075130;28;20239;-83
2023/09/23 14:57:40;;;;;;;2.77;0.73;;;;;;;;;;5075817;28;20255;-84